Time;durP1;ratioP1;P1;durP2;ratioP2;P2;SDS_P1;SDS_P2;PMS_P1;PMS_P2;Temp;Humidity;BMP_temperature;BMP_pressure;BME280_temperature;BME280_humidity;BME280_pressure;Samples;Min_cycle;Max_cycle;Signal;HPM_P1;HPM_P2
2023/07/16 00:01:08;;;;;;;7.90;7.10;;;;;;;;;;10271967;28;20060;-66
2023/07/16 00:06:04;;;;;;;9.30;8.40;;;;;;;;;;10261506;28;20076;-68
2023/07/16 00:11:02;;;;;;;9.25;8.45;;;;;;;;;;10269933;28;20060;-68
2023/07/16 00:15:59;;;;;;;10.30;9.40;;;;;;;;;;10262411;28;20131;-68
2023/07/16 00:20:55;;;;;;;10.10;9.20;;;;;;;;;;10266399;28;20065;-68
2023/07/16 00:25:51;;;;;;;10.18;9.35;;;;;;;;;;10273521;28;20041;-69
2023/07/16 00:30:48;;;;;;;10.45;9.55;;;;;;;;;;10254537;28;20045;-69
2023/07/16 00:35:49;;;;;;;10.75;9.93;;;;;;;;;;10261217;28;20048;-68
2023/07/16 00:40:45;;;;;;;9.90;9.20;;;;;;;;;;10276708;28;20047;-67
2023/07/16 00:45:44;;;;;;;10.27;9.48;;;;;;;;;;10270761;28;20065;-67
2023/07/16 00:50:41;;;;;;;10.60;9.70;;;;;;;;;;10276556;28;20142;-67
2023/07/16 00:55:38;;;;;;;9.73;8.93;;;;;;;;;;10258186;28;20102;-67
2023/07/16 01:00:35;;;;;;;11.13;10.02;;;;;;;;;;10274556;28;20044;-67
2023/07/16 01:06:00;;;;;;;10.65;9.73;;;;;;;;;;10268811;28;20056;-67
2023/07/16 01:10:57;;;;;;;10.52;9.65;;;;;;;;;;10281207;28;20528;-67
2023/07/16 01:15:56;;;;;;;10.57;9.60;;;;;;;;;;10264413;28;20049;-67
2023/07/16 01:20:52;;;;;;;11.32;10.32;;;;;;;;;;10275556;28;20050;-67
2023/07/16 01:26:00;;;;;;;10.80;9.90;;;;;;;;;;10272344;28;20060;-66
2023/07/16 01:30:58;;;;;;;10.32;9.40;;;;;;;;;;10266083;28;20084;-68
2023/07/16 01:35:55;;;;;;;10.55;9.75;;;;;;;;;;10264260;28;20057;-68
2023/07/16 01:40:51;;;;;;;9.35;8.63;;;;;;;;;;10270191;28;20191;-68
2023/07/16 01:45:48;;;;;;;9.02;8.43;;;;;;;;;;10264037;28;20051;-67
2023/07/16 01:50:47;;;;;;;10.43;9.52;;;;;;;;;;10268412;28;20133;-67
2023/07/16 01:55:43;;;;;;;8.80;8.15;;;;;;;;;;10250855;28;20049;-67
2023/07/16 02:00:40;;;;;;;9.38;8.57;;;;;;;;;;10274796;28;20048;-67
2023/07/16 02:05:36;;;;;;;8.20;7.43;;;;;;;;;;10275716;28;20570;-67
2023/07/16 02:10:32;;;;;;;9.48;8.48;;;;;;;;;;10267249;28;20048;-65
2023/07/16 02:15:29;;;;;;;10.20;9.15;;;;;;;;;;10252598;28;20081;-68
2023/07/16 02:20:25;;;;;;;9.48;7.90;;;;;;;;;;10271480;28;20524;-70
2023/07/16 02:25:21;;;;;;;8.15;7.45;;;;;;;;;;10271936;28;20052;-70
2023/07/16 02:30:18;;;;;;;9.75;7.40;;;;;;;;;;10267402;28;20049;-70
2023/07/16 02:35:14;;;;;;;8.18;7.47;;;;;;;;;;10263188;28;20068;-69
2023/07/16 02:40:11;;;;;;;8.00;7.40;;;;;;;;;;10274905;28;20604;-69
2023/07/16 02:45:08;;;;;;;7.93;7.20;;;;;;;;;;10266545;28;20053;-69
2023/07/16 02:50:04;;;;;;;8.68;7.32;;;;;;;;;;10269759;28;20137;-68
2023/07/16 02:55:00;;;;;;;10.60;8.52;;;;;;;;;;10259871;28;20079;-69
2023/07/16 02:59:57;;;;;;;8.68;7.80;;;;;;;;;;10272963;28;20102;-69
2023/07/16 03:04:54;;;;;;;8.88;8.07;;;;;;;;;;10285786;28;20669;-69
2023/07/16 03:09:50;;;;;;;10.48;8.45;;;;;;;;;;10261676;28;20520;-68
2023/07/16 03:14:47;;;;;;;9.02;7.75;;;;;;;;;;10258656;28;20034;-68
2023/07/16 03:19:43;;;;;;;8.85;8.13;;;;;;;;;;10264976;28;20072;-68
2023/07/16 03:24:40;;;;;;;8.77;8.07;;;;;;;;;;10270443;28;20091;-68
2023/07/16 03:29:36;;;;;;;8.20;7.40;;;;;;;;;;10272850;28;20045;-67
2023/07/16 03:34:33;;;;;;;8.48;7.57;;;;;;;;;;10264031;28;20056;-68
2023/07/16 03:39:29;;;;;;;8.00;7.28;;;;;;;;;;10270970;28;20048;-68
2023/07/16 03:44:26;;;;;;;8.73;7.85;;;;;;;;;;10277509;28;20097;-68
2023/07/16 03:49:22;;;;;;;9.23;8.35;;;;;;;;;;10273371;28;20500;-68
2023/07/16 03:54:19;;;;;;;8.48;7.68;;;;;;;;;;10261830;28;20094;-68
2023/07/16 03:59:15;;;;;;;9.40;8.40;;;;;;;;;;10275980;28;20073;-68
2023/07/16 04:04:12;;;;;;;8.55;7.68;;;;;;;;;;10267636;28;20041;-68
2023/07/16 04:09:08;;;;;;;7.95;7.15;;;;;;;;;;10262595;28;20416;-67
2023/07/16 04:14:04;;;;;;;7.75;7.00;;;;;;;;;;10249066;28;20049;-67
2023/07/16 04:19:01;;;;;;;8.25;7.22;;;;;;;;;;10260103;28;20103;-66
2023/07/16 04:23:57;;;;;;;8.90;7.47;;;;;;;;;;10266262;28;20053;-67
2023/07/16 04:28:53;;;;;;;8.82;7.93;;;;;;;;;;10261632;28;20076;-67
2023/07/16 04:33:50;;;;;;;9.07;7.35;;;;;;;;;;10259509;28;20048;-67
2023/07/16 04:38:46;;;;;;;8.52;7.72;;;;;;;;;;10258860;28;20072;-67
2023/07/16 04:43:43;;;;;;;8.88;8.10;;;;;;;;;;10263162;28;20053;-67
2023/07/16 04:48:41;;;;;;;9.60;8.90;;;;;;;;;;10259902;28;20488;-67
2023/07/16 04:53:37;;;;;;;8.43;7.72;;;;;;;;;;10256353;28;20452;-67
2023/07/16 04:58:33;;;;;;;8.93;8.07;;;;;;;;;;10256199;28;20040;-67
2023/07/16 05:03:30;;;;;;;11.38;8.45;;;;;;;;;;10273022;28;20045;-67
2023/07/16 05:08:26;;;;;;;8.70;8.00;;;;;;;;;;10279177;28;20049;-67
2023/07/16 05:13:23;;;;;;;8.63;7.93;;;;;;;;;;10250127;28;20110;-67
2023/07/16 05:18:19;;;;;;;8.82;7.90;;;;;;;;;;10266082;28;20048;-67
2023/07/16 05:23:15;;;;;;;8.20;7.53;;;;;;;;;;10273400;28;20724;-67
2023/07/16 05:28:11;;;;;;;11.68;7.97;;;;;;;;;;10265354;28;20040;-67
2023/07/16 05:33:08;;;;;;;9.55;7.80;;;;;;;;;;10261095;28;20466;-67
2023/07/16 05:38:07;;;;;;;7.93;7.22;;;;;;;;;;10264948;28;20505;-67
2023/07/16 05:43:04;;;;;;;9.48;7.72;;;;;;;;;;10275211;28;20122;-67
2023/07/16 05:48:03;;;;;;;9.32;8.52;;;;;;;;;;10267332;28;20049;-67
2023/07/16 05:53:00;;;;;;;8.77;7.43;;;;;;;;;;10272933;28;20063;-68
2023/07/16 05:57:56;;;;;;;8.63;7.88;;;;;;;;;;10258968;28;20095;-68
2023/07/16 06:02:53;;;;;;;9.60;7.60;;;;;;;;;;10275549;28;20071;-68
2023/07/16 06:07:49;;;;;;;8.90;8.10;;;;;;;;;;10292936;28;20091;-68
2023/07/16 06:12:45;;;;;;;9.38;7.53;;;;;;;;;;10287104;28;20044;-67
2023/07/16 06:17:42;;;;;;;8.63;7.35;;;;;;;;;;10251606;28;20041;-67
2023/07/16 06:22:38;;;;;;;13.63;7.68;;;;;;;;;;10288754;28;20041;-67
2023/07/16 06:27:34;;;;;;;8.40;7.63;;;;;;;;;;10262731;28;20052;-69
2023/07/16 06:32:31;;;;;;;8.65;7.60;;;;;;;;;;10258718;28;20114;-70
2023/07/16 06:37:27;;;;;;;8.77;7.90;;;;;;;;;;10271509;28;20044;-69
2023/07/16 06:42:24;;;;;;;9.40;8.18;;;;;;;;;;10291729;28;20091;-70
2023/07/16 06:47:20;;;;;;;9.65;8.55;;;;;;;;;;10273966;28;20049;-67
2023/07/16 06:52:24;;;;;;;10.90;8.90;;;;;;;;;;10263581;28;20055;-67
2023/07/16 06:57:21;;;;;;;9.73;8.55;;;;;;;;;;10267131;28;20041;-68
2023/07/16 07:02:17;;;;;;;12.15;9.40;;;;;;;;;;10264349;28;20653;-64
2023/07/16 07:07:13;;;;;;;11.15;8.82;;;;;;;;;;10278935;28;20086;-68
2023/07/16 07:12:10;;;;;;;14.45;9.27;;;;;;;;;;10262044;28;20049;-68
2023/07/16 07:17:06;;;;;;;10.27;8.82;;;;;;;;;;10258271;28;20223;-67
2023/07/16 07:22:02;;;;;;;9.65;8.73;;;;;;;;;;10287135;28;20049;-67
2023/07/16 07:26:59;;;;;;;10.32;9.30;;;;;;;;;;10262479;28;20057;-69
2023/07/16 07:31:55;;;;;;;10.00;9.07;;;;;;;;;;10258505;28;20083;-71
2023/07/16 07:36:51;;;;;;;11.93;9.40;;;;;;;;;;10256359;28;20044;-66
2023/07/16 07:41:48;;;;;;;11.95;9.70;;;;;;;;;;10293887;28;20075;-67
2023/07/16 07:46:44;;;;;;;10.10;9.20;;;;;;;;;;10257830;28;20118;-69
2023/07/16 07:51:40;;;;;;;10.30;9.40;;;;;;;;;;10252181;28;20053;-70
2023/07/16 07:56:37;;;;;;;10.80;8.80;;;;;;;;;;10255153;28;20654;-69
2023/07/16 08:01:34;;;;;;;10.95;9.00;;;;;;;;;;10264454;28;20137;-68
2023/07/16 08:06:31;;;;;;;10.73;9.02;;;;;;;;;;10265412;28;20051;-68
2023/07/16 08:11:27;;;;;;;9.77;8.88;;;;;;;;;;10282279;28;20045;-66
2023/07/16 08:16:24;;;;;;;10.13;9.18;;;;;;;;;;10258806;28;20052;-65
2023/07/16 08:21:21;;;;;;;9.93;8.90;;;;;;;;;;10259543;28;20072;-65
2023/07/16 08:26:17;;;;;;;11.07;8.93;;;;;;;;;;10268196;28;20051;-65
2023/07/16 08:31:14;;;;;;;9.45;8.65;;;;;;;;;;10265428;28;20390;-67
2023/07/16 08:36:11;;;;;;;9.05;8.25;;;;;;;;;;10249610;28;20048;-67
2023/07/16 08:41:07;;;;;;;9.07;8.15;;;;;;;;;;10285738;28;20690;-67
2023/07/16 08:46:04;;;;;;;9.45;8.55;;;;;;;;;;10268942;28;20045;-68
2023/07/16 08:51:01;;;;;;;9.38;8.55;;;;;;;;;;10264360;28;20049;-67
2023/07/16 08:55:58;;;;;;;10.60;8.05;;;;;;;;;;10263751;28;20122;-67
2023/07/16 09:00:55;;;;;;;9.75;8.75;;;;;;;;;;10250358;28;20060;-68
2023/07/16 09:05:53;;;;;;;9.77;8.77;;;;;;;;;;10265822;28;20060;-68
2023/07/16 09:10:53;;;;;;;10.15;9.13;;;;;;;;;;10272599;28;20071;-68
2023/07/16 09:15:53;;;;;;;12.63;9.70;;;;;;;;;;10270424;28;20562;-68
2023/07/16 09:20:56;;;;;;;9.32;8.40;;;;;;;;;;10270017;28;20044;-69
2023/07/16 09:25:54;;;;;;;9.27;8.45;;;;;;;;;;10265318;28;20038;-67
2023/07/16 09:30:51;;;;;;;12.25;9.18;;;;;;;;;;10259572;28;20052;-68
2023/07/16 09:35:53;;;;;;;10.55;8.20;;;;;;;;;;10261008;28;20052;-68
2023/07/16 09:40:51;;;;;;;10.23;9.27;;;;;;;;;;10271933;28;20051;-68
2023/07/16 09:45:47;;;;;;;9.55;8.65;;;;;;;;;;10272303;28;20111;-68
2023/07/16 09:50:55;;;;;;;9.52;8.60;;;;;;;;;;10273722;28;20068;-68
2023/07/16 09:55:55;;;;;;;10.13;8.70;;;;;;;;;;10257837;28;20137;-67
2023/07/16 10:00:52;;;;;;;10.65;8.77;;;;;;;;;;10273763;28;20076;-69
2023/07/16 10:05:51;;;;;;;10.02;8.50;;;;;;;;;;10265646;28;20045;-69
2023/07/16 10:10:49;;;;;;;9.52;8.48;;;;;;;;;;10266288;28;20110;-69
2023/07/16 10:15:53;;;;;;;10.80;8.10;;;;;;;;;;10272115;28;20052;-69
2023/07/16 10:20:51;;;;;;;10.35;9.45;;;;;;;;;;10262589;28;20535;-66
2023/07/16 10:26:00;;;;;;;12.40;9.23;;;;;;;;;;10261648;28;20053;-69
2023/07/16 10:30:57;;;;;;;10.80;9.10;;;;;;;;;;10285876;28;20122;-69
2023/07/16 10:35:55;;;;;;;9.38;8.48;;;;;;;;;;10271517;28;20056;-69
2023/07/16 10:40:52;;;;;;;8.85;7.35;;;;;;;;;;10261610;28;20037;-68
2023/07/16 10:45:50;;;;;;;9.93;7.95;;;;;;;;;;10289235;28;20500;-69
2023/07/16 10:50:46;;;;;;;10.05;8.25;;;;;;;;;;10258417;28;20072;-69
2023/07/16 10:55:43;;;;;;;10.52;8.52;;;;;;;;;;10253820;28;20041;-69
2023/07/16 11:00:44;;;;;;;9.40;8.50;;;;;;;;;;10278244;28;20420;-69
2023/07/16 11:05:40;;;;;;;9.00;8.10;;;;;;;;;;10265695;28;20049;-69
2023/07/16 11:10:37;;;;;;;9.25;8.23;;;;;;;;;;10273188;28;20042;-69
2023/07/16 11:15:34;;;;;;;10.57;9.13;;;;;;;;;;10260322;28;20871;-68
2023/07/16 11:20:33;;;;;;;9.65;8.27;;;;;;;;;;10273174;28;20508;-66
2023/07/16 11:25:29;;;;;;;8.25;7.45;;;;;;;;;;10276222;28;20092;-66
2023/07/16 11:30:27;;;;;;;14.50;9.95;;;;;;;;;;10262883;28;20118;-66
2023/07/16 11:35:25;;;;;;;10.48;8.30;;;;;;;;;;10251323;28;20048;-66
2023/07/16 11:40:22;;;;;;;8.98;8.15;;;;;;;;;;10260464;28;20048;-67
2023/07/16 11:45:19;;;;;;;11.20;8.38;;;;;;;;;;10257159;28;20049;-65
2023/07/16 11:50:16;;;;;;;13.15;8.27;;;;;;;;;;10254547;28;20041;-66
2023/07/16 11:55:12;;;;;;;12.57;8.73;;;;;;;;;;10258981;28;20043;-69
2023/07/16 12:00:09;;;;;;;9.45;8.55;;;;;;;;;;10268113;28;20049;-69
2023/07/16 12:05:06;;;;;;;8.77;7.97;;;;;;;;;;10261882;28;20080;-72
2023/07/16 12:10:06;;;;;;;11.40;8.52;;;;;;;;;;10259538;28;20044;-72
2023/07/16 12:15:02;;;;;;;9.02;7.28;;;;;;;;;;10248943;28;20084;-71
2023/07/16 12:19:59;;;;;;;8.80;7.40;;;;;;;;;;10259592;28;20547;-72
2023/07/16 12:24:55;;;;;;;8.82;7.78;;;;;;;;;;10263110;28;20053;-73
2023/07/16 12:29:52;;;;;;;10.38;8.00;;;;;;;;;;10260760;28;20448;-73
2023/07/16 12:34:48;;;;;;;11.13;7.95;;;;;;;;;;10271189;28;20123;-73
2023/07/16 12:39:45;;;;;;;9.48;8.50;;;;;;;;;;10286503;28;20123;-72
2023/07/16 12:44:41;;;;;;;8.88;8.07;;;;;;;;;;10259808;28;20048;-72
2023/07/16 12:49:41;;;;;;;10.13;7.70;;;;;;;;;;10282956;28;20501;-72
2023/07/16 12:54:38;;;;;;;8.13;7.38;;;;;;;;;;10282127;28;20036;-72
2023/07/16 12:59:34;;;;;;;8.63;7.78;;;;;;;;;;10288749;28;20076;-72
2023/07/16 13:04:31;;;;;;;10.05;7.28;;;;;;;;;;10265265;28;20037;-72
2023/07/16 13:09:27;;;;;;;8.23;7.28;;;;;;;;;;10267671;28;20098;-72
2023/07/16 13:14:23;;;;;;;8.85;7.57;;;;;;;;;;10270654;28;20406;-72
2023/07/16 13:19:20;;;;;;;9.27;8.38;;;;;;;;;;10269318;28;20124;-72
2023/07/16 13:24:16;;;;;;;9.27;7.03;;;;;;;;;;10264372;28;20068;-72
2023/07/16 13:29:12;;;;;;;7.82;7.05;;;;;;;;;;10253341;28;20416;-73
2023/07/16 13:34:09;;;;;;;8.13;7.00;;;;;;;;;;10265145;28;20041;-72
2023/07/16 13:39:06;;;;;;;7.75;7.03;;;;;;;;;;10263620;28;20475;-72
2023/07/16 13:44:03;;;;;;;8.30;7.45;;;;;;;;;;10275773;28;20047;-72
2023/07/16 13:49:00;;;;;;;8.38;7.50;;;;;;;;;;10298565;28;20534;-72
2023/07/16 13:53:57;;;;;;;9.23;7.30;;;;;;;;;;10275226;28;20064;-72
2023/07/16 13:58:53;;;;;;;9.27;8.02;;;;;;;;;;10285899;28;20045;-73
2023/07/16 14:03:50;;;;;;;8.50;7.60;;;;;;;;;;10279757;28;20076;-72
2023/07/16 14:08:47;;;;;;;8.25;7.35;;;;;;;;;;10257705;28;20045;-72
2023/07/16 14:13:43;;;;;;;8.13;7.32;;;;;;;;;;10277816;28;20048;-73
2023/07/16 14:18:40;;;;;;;7.82;6.88;;;;;;;;;;10278190;28;20427;-73
2023/07/16 14:23:37;;;;;;;8.57;7.07;;;;;;;;;;10263782;28;20044;-72
2023/07/16 14:28:33;;;;;;;8.20;7.40;;;;;;;;;;10274374;28;20627;-72
2023/07/16 14:33:30;;;;;;;11.60;7.95;;;;;;;;;;10291001;28;20065;-71
2023/07/16 14:38:26;;;;;;;8.02;7.15;;;;;;;;;;10258575;28;20045;-72
2023/07/16 14:43:23;;;;;;;8.73;7.38;;;;;;;;;;10267141;28;20072;-72
2023/07/16 14:48:22;;;;;;;7.63;6.95;;;;;;;;;;10277424;28;20049;-72
2023/07/16 14:53:19;;;;;;;7.95;7.03;;;;;;;;;;10262793;28;20041;-72
2023/07/16 14:58:19;;;;;;;7.47;6.88;;;;;;;;;;10258525;28;20095;-73
2023/07/16 15:03:16;;;;;;;11.07;7.68;;;;;;;;;;10261305;28;20072;-72
2023/07/16 15:08:12;;;;;;;8.27;7.55;;;;;;;;;;10271442;28;20085;-72
2023/07/16 15:13:09;;;;;;;8.52;7.72;;;;;;;;;;10267858;28;20083;-72
2023/07/16 15:18:08;;;;;;;8.55;7.60;;;;;;;;;;10270156;28;20042;-72
2023/07/16 15:23:05;;;;;;;8.90;7.60;;;;;;;;;;10265041;28;20057;-73
2023/07/16 15:28:06;;;;;;;8.95;7.05;;;;;;;;;;10270566;28;20048;-73
2023/07/16 15:33:03;;;;;;;8.43;7.50;;;;;;;;;;10260941;28;20499;-70
2023/07/16 15:38:00;;;;;;;8.25;7.45;;;;;;;;;;10270090;28;21022;-72
2023/07/16 15:42:57;;;;;;;9.00;8.05;;;;;;;;;;10262831;28;20495;-71
2023/07/16 15:48:03;;;;;;;7.93;7.13;;;;;;;;;;10274342;28;20581;-72
2023/07/16 15:52:59;;;;;;;7.78;7.07;;;;;;;;;;10269545;28;20156;-71
2023/07/16 15:57:57;;;;;;;8.80;7.68;;;;;;;;;;10256825;28;20131;-70
2023/07/16 16:02:55;;;;;;;8.07;7.15;;;;;;;;;;10261625;28;20533;-71
2023/07/16 16:08:12;;;;;;;7.70;7.00;;;;;;;;;;10257109;28;20041;-71
2023/07/16 16:13:09;;;;;;;8.80;7.90;;;;;;;;;;10254317;28;20068;-70
2023/07/16 16:18:06;;;;;;;8.00;7.28;;;;;;;;;;10249158;28;20513;-70
2023/07/16 16:23:03;;;;;;;7.80;7.07;;;;;;;;;;10255156;28;20514;-70
2023/07/16 16:28:00;;;;;;;12.70;8.05;;;;;;;;;;10264689;28;20094;-70
2023/07/16 16:32:59;;;;;;;11.15;8.00;;;;;;;;;;10254483;28;20573;-70
2023/07/16 16:37:57;;;;;;;8.50;7.60;;;;;;;;;;10243968;28;20058;-71
2023/07/16 16:42:54;;;;;;;9.18;7.40;;;;;;;;;;10257447;28;20425;-70
2023/07/16 16:47:50;;;;;;;9.38;7.63;;;;;;;;;;10270671;28;20075;-70
2023/07/16 16:52:47;;;;;;;9.90;7.47;;;;;;;;;;10254069;28;20038;-71
2023/07/16 16:57:43;;;;;;;7.90;7.20;;;;;;;;;;10263495;28;20100;-67
2023/07/16 17:02:40;;;;;;;9.88;7.50;;;;;;;;;;10261316;28;20136;-67
2023/07/16 17:07:37;;;;;;;8.80;7.10;;;;;;;;;;10247188;28;20420;-67
2023/07/16 17:12:33;;;;;;;8.88;6.88;;;;;;;;;;10264842;28;20432;-67
2023/07/16 17:17:33;;;;;;;9.27;7.90;;;;;;;;;;10266726;28;20084;-67
2023/07/16 17:22:29;;;;;;;8.75;7.85;;;;;;;;;;10264296;28;20049;-67
2023/07/16 17:32:37;;;;;;;8.47;7.63;;;;;;;;;;11185898;23;20054;-69
2023/07/16 17:37:36;;;;;;;7.65;6.90;;;;;;;;;;10138511;28;20050;-70
2023/07/16 17:42:33;;;;;;;7.68;6.88;;;;;;;;;;10141964;28;20043;-70
2023/07/16 17:47:29;;;;;;;7.65;6.95;;;;;;;;;;10147488;28;20494;-70
2023/07/16 17:52:26;;;;;;;8.57;7.05;;;;;;;;;;10139655;28;20066;-70
2023/07/16 17:57:22;;;;;;;7.47;6.78;;;;;;;;;;10144402;28;20513;-70
2023/07/16 18:02:18;;;;;;;9.63;6.90;;;;;;;;;;10138668;28;20058;-70
2023/07/16 18:07:16;;;;;;;7.90;6.88;;;;;;;;;;10136904;28;20043;-70
2023/07/16 18:12:13;;;;;;;10.73;7.80;;;;;;;;;;10130677;28;20498;-70
2023/07/16 18:17:09;;;;;;;7.93;7.13;;;;;;;;;;10138416;28;20109;-70
2023/07/16 18:22:06;;;;;;;9.15;7.05;;;;;;;;;;10135649;28;20129;-70
2023/07/16 18:27:22;;;;;;;8.43;7.25;;;;;;;;;;10133115;28;20054;-70
2023/07/16 18:32:19;;;;;;;9.30;7.32;;;;;;;;;;10139528;28;20097;-70
2023/07/16 18:37:19;;;;;;;9.18;8.25;;;;;;;;;;10141704;28;20145;-70
2023/07/16 18:42:15;;;;;;;8.32;7.50;;;;;;;;;;10142960;28;20556;-70
2023/07/16 18:47:15;;;;;;;11.95;7.45;;;;;;;;;;10148168;28;20042;-70
2023/07/16 18:52:11;;;;;;;8.07;7.30;;;;;;;;;;10138440;28;20049;-71
2023/07/16 18:57:07;;;;;;;10.38;7.70;;;;;;;;;;10115519;28;20106;-70
2023/07/16 19:02:04;;;;;;;8.60;7.50;;;;;;;;;;10096472;28;20039;-70
2023/07/16 19:07:01;;;;;;;10.35;7.95;;;;;;;;;;10104288;28;20433;-69
2023/07/16 19:11:57;;;;;;;9.20;7.20;;;;;;;;;;10143936;28;20618;-70
2023/07/16 19:16:53;;;;;;;8.32;7.45;;;;;;;;;;10138915;28;20061;-70
2023/07/16 19:21:50;;;;;;;9.90;7.85;;;;;;;;;;10218337;23;20557;-71
2023/07/16 19:26:46;;;;;;;7.30;6.60;;;;;;;;;;10069730;28;20498;-70
2023/07/16 19:31:42;;;;;;;8.88;8.10;;;;;;;;;;10065751;28;20067;-70
2023/07/16 19:36:39;;;;;;;9.07;7.93;;;;;;;;;;10062023;28;20047;-70
2023/07/16 19:41:35;;;;;;;8.52;7.63;;;;;;;;;;10062249;28;20047;-70
2023/07/16 19:46:31;;;;;;;9.77;7.70;;;;;;;;;;10062888;28;20047;-70
2023/07/16 19:51:28;;;;;;;8.63;7.50;;;;;;;;;;10066088;28;20114;-70
2023/07/16 19:56:27;;;;;;;8.60;7.68;;;;;;;;;;10045094;28;20098;-69
2023/07/16 20:01:26;;;;;;;8.15;7.35;;;;;;;;;;10058517;28;20043;-68
2023/07/16 20:06:23;;;;;;;12.15;8.82;;;;;;;;;;10070033;28;20043;-68
2023/07/16 20:11:19;;;;;;;8.95;8.05;;;;;;;;;;10074351;28;20079;-67
2023/07/16 20:16:16;;;;;;;8.55;7.68;;;;;;;;;;10064592;28;20047;-66
2023/07/16 20:21:12;;;;;;;8.85;7.72;;;;;;;;;;10065836;28;20047;-67
2023/07/16 20:26:09;;;;;;;12.45;9.00;;;;;;;;;;10063342;28;20070;-66
2023/07/16 20:31:05;;;;;;;9.20;7.47;;;;;;;;;;10060603;28;20039;-67
2023/07/16 20:36:02;;;;;;;11.27;8.50;;;;;;;;;;10056970;28;20051;-67
2023/07/16 20:40:59;;;;;;;9.55;7.72;;;;;;;;;;10054002;28;20059;-66
2023/07/16 20:45:55;;;;;;;8.98;8.05;;;;;;;;;;10065037;28;20507;-66
2023/07/16 20:50:53;;;;;;;10.07;7.80;;;;;;;;;;10063681;28;20058;-67
2023/07/16 20:55:49;;;;;;;11.15;7.88;;;;;;;;;;10070913;28;20047;-66
2023/07/16 21:00:46;;;;;;;10.82;7.45;;;;;;;;;;10071079;28;20502;-66
2023/07/16 21:05:43;;;;;;;8.60;7.32;;;;;;;;;;10070637;28;20042;-66
2023/07/16 21:10:39;;;;;;;9.02;8.10;;;;;;;;;;10068144;28;20078;-67
2023/07/16 21:15:35;;;;;;;10.50;7.82;;;;;;;;;;10063139;28;20047;-67
2023/07/16 21:20:37;;;;;;;8.25;7.55;;;;;;;;;;10069546;28;20098;-66
2023/07/16 21:25:33;;;;;;;8.82;7.93;;;;;;;;;;10071839;28;20057;-67
2023/07/16 21:30:29;;;;;;;8.93;7.88;;;;;;;;;;10072069;28;20466;-67
2023/07/16 21:35:26;;;;;;;9.00;8.18;;;;;;;;;;10075213;28;20518;-67
2023/07/16 21:40:28;;;;;;;9.50;7.60;;;;;;;;;;10068631;28;20066;-66
2023/07/16 21:45:25;;;;;;;7.72;7.03;;;;;;;;;;10073991;28;20093;-66
2023/07/16 21:50:21;;;;;;;9.00;7.68;;;;;;;;;;10060734;28;20054;-66
2023/07/16 21:55:17;;;;;;;7.93;7.20;;;;;;;;;;10070436;28;20055;-66
2023/07/16 22:00:14;;;;;;;11.00;7.95;;;;;;;;;;10074428;28;20043;-66
2023/07/16 22:05:11;;;;;;;7.60;6.90;;;;;;;;;;10073930;28;20388;-67
2023/07/16 22:10:08;;;;;;;8.07;7.38;;;;;;;;;;10072266;28;20055;-67
2023/07/16 22:15:05;;;;;;;8.77;7.22;;;;;;;;;;10067418;28;20047;-69
2023/07/16 22:20:03;;;;;;;8.23;7.38;;;;;;;;;;10066408;28;20047;-68
2023/07/16 22:25:00;;;;;;;13.57;7.53;;;;;;;;;;10063341;28;20106;-68
2023/07/16 22:29:56;;;;;;;10.43;7.25;;;;;;;;;;10065010;28;20043;-69
2023/07/16 22:34:52;;;;;;;9.05;7.55;;;;;;;;;;10075488;28;20055;-68
2023/07/16 22:39:49;;;;;;;8.57;7.25;;;;;;;;;;10068055;28;20091;-67
2023/07/16 22:44:47;;;;;;;9.98;7.60;;;;;;;;;;10066280;28;20043;-69
2023/07/16 22:49:43;;;;;;;8.18;7.47;;;;;;;;;;10068525;28;20071;-68
2023/07/16 22:54:40;;;;;;;8.32;7.00;;;;;;;;;;10065432;28;20047;-68
2023/07/16 22:59:36;;;;;;;7.32;6.63;;;;;;;;;;10060096;28;20039;-67
2023/07/16 23:04:32;;;;;;;8.57;6.70;;;;;;;;;;10059835;28;20101;-67
2023/07/16 23:09:28;;;;;;;8.90;6.60;;;;;;;;;;10069255;28;20099;-69
2023/07/16 23:14:25;;;;;;;7.30;6.63;;;;;;;;;;10068738;28;20051;-69
2023/07/16 23:19:21;;;;;;;7.70;6.78;;;;;;;;;;10066711;28;20046;-68
2023/07/16 23:24:17;;;;;;;10.27;8.02;;;;;;;;;;10068495;28;20067;-68
2023/07/16 23:29:14;;;;;;;7.78;7.07;;;;;;;;;;10062799;28;20039;-68
2023/07/16 23:34:10;;;;;;;8.32;7.45;;;;;;;;;;10069277;28;20047;-68
2023/07/16 23:39:06;;;;;;;10.40;8.07;;;;;;;;;;10066747;28;20047;-68
2023/07/16 23:44:03;;;;;;;9.18;8.27;;;;;;;;;;10060813;28;20054;-66
2023/07/16 23:48:59;;;;;;;10.65;7.47;;;;;;;;;;10060103;28;20451;-67
2023/07/16 23:53:55;;;;;;;8.85;7.30;;;;;;;;;;10065544;28;20130;-66
2023/07/16 23:59:04;;;;;;;8.48;7.63;;;;;;;;;;10068695;28;20043;-66
